Time;durP1;ratioP1;P1;durP2;ratioP2;P2;SDS_P1;SDS_P2;PMS_P1;PMS_P2;Temp;Humidity;BMP_temperature;BMP_pressure;BME280_temperature;BME280_humidity;BME280_pressure;Samples;Min_cycle;Max_cycle;Signal;HPM_P1;HPM_P2
2023/03/30 00:03:48;;;;;;;4.18;2.42;;;13.60;1.00;;;;;;20720488;28;20051;-41
2023/03/30 00:13:50;;;;;;;11.60;1.88;;;13.70;1.00;;;;;;20717553;28;20044;-40
2023/03/30 00:23:51;;;;;;;2.53;1.25;;;13.80;1.00;;;;;;20725303;28;20033;-40
2023/03/30 00:33:52;;;;;;;1.65;0.68;;;13.60;1.00;;;;;;20781367;28;20042;-40
2023/03/30 00:43:58;;;;;;;2.60;1.77;;;13.50;1.00;;;;;;20769921;28;20528;-40
2023/03/30 00:54:06;;;;;;;1.73;0.70;;;13.40;1.00;;;;;;20717382;28;20684;-41
2023/03/30 01:04:08;;;;;;;2.93;1.13;;;13.40;1.00;;;;;;20790963;28;20044;-41
2023/03/30 01:14:11;;;;;;;2.85;0.80;;;13.30;1.00;;;;;;20802231;28;20041;-41
2023/03/30 01:25:01;;;;;;;3.58;1.55;;;13.20;1.00;;;;;;20796226;28;20519;-41
2023/03/30 01:35:27;;;;;;;1.45;0.60;;;13.00;1.00;;;;;;20714732;28;20415;-42
2023/03/30 01:45:43;;;;;;;1.42;0.82;;;13.10;1.00;;;;;;20788746;28;20049;-40
2023/03/30 01:56:03;;;;;;;1.15;0.60;;;13.30;1.00;;;;;;20750183;28;20044;-41
2023/03/30 02:06:08;;;;;;;1.85;0.90;;;13.30;1.00;;;;;;20738071;28;20376;-40
2023/03/30 02:16:21;;;;;;;1.90;0.70;;;13.20;1.00;;;;;;20712556;28;20046;-40
2023/03/30 02:26:22;;;;;;;1.80;1.00;;;13.00;1.00;;;;;;20725708;28;20059;-41
2023/03/30 02:36:54;;;;;;;1.45;0.73;;;12.90;1.00;;;;;;20713538;28;20029;-41
2023/03/30 02:47:11;;;;;;;4.82;1.08;;;13.00;1.00;;;;;;20702399;28;20046;-42
2023/03/30 02:57:41;;;;;;;1.20;0.63;;;13.00;1.00;;;;;;20784750;28;20585;-41
2023/03/30 03:07:43;;;;;;;1.50;0.70;;;13.20;1.00;;;;;;20749298;28;20052;-40
2023/03/30 03:17:45;;;;;;;1.80;0.93;;;13.20;1.00;;;;;;20766879;28;20040;-41
2023/03/30 03:27:46;;;;;;;1.20;0.50;;;13.00;1.00;;;;;;20723165;28;20045;-41
2023/03/30 03:37:47;;;;;;;1.50;0.73;;;13.00;1.00;;;;;;20713325;28;20042;-40
2023/03/30 03:47:52;;;;;;;3.70;1.05;;;12.90;1.00;;;;;;20701366;28;20042;-40
2023/03/30 03:57:53;;;;;;;4.57;1.40;;;12.90;1.00;;;;;;20727348;28;20104;-40
2023/03/30 04:07:55;;;;;;;2.67;0.80;;;12.90;1.00;;;;;;20714107;28;20065;-41
2023/03/30 04:17:57;;;;;;;2.05;1.05;;;13.00;1.00;;;;;;20714440;28;20048;-41
2023/03/30 04:27:58;;;;;;;4.78;0.95;;;13.20;1.00;;;;;;20721297;28;20372;-41
2023/03/30 04:38:00;;;;;;;8.38;1.27;;;13.30;1.00;;;;;;20712016;28;20156;-40
2023/03/30 04:48:01;;;;;;;4.22;1.80;;;12.80;13.30;;;;;;20743144;28;20052;-40
2023/03/30 04:58:03;;;;;;;3.40;1.25;;;12.20;55.80;;;;;;20727342;28;20638;-40
2023/03/30 05:08:04;;;;;;;3.40;0.90;;;12.00;94.30;;;;;;20704422;28;20421;-40
2023/03/30 05:18:05;;;;;;;2.90;1.00;;;11.90;97.90;;;;;;20719326;28;20029;-40
2023/03/30 05:28:06;;;;;;;9.07;2.67;;;11.80;91.60;;;;;;20710508;28;20034;-40
2023/03/30 05:38:08;;;;;;;3.60;1.13;;;11.80;73.40;;;;;;20709497;28;20945;-40
2023/03/30 05:48:09;;;;;;;5.25;1.67;;;11.70;58.40;;;;;;20707179;28;20041;-40
2023/03/30 05:58:10;;;;;;;19.40;2.38;;;11.60;52.40;;;;;;20725188;28;20041;-39
2023/03/30 06:08:12;;;;;;;4.00;1.35;;;11.60;40.70;;;;;;20707998;28;20038;-40
2023/03/30 06:18:13;;;;;;;2.90;1.02;;;11.60;40.10;;;;;;20706759;28;20033;-40
2023/03/30 06:28:14;;;;;;;9.45;3.13;;;11.70;36.20;;;;;;20702346;28;20084;-40
2023/03/30 06:38:17;;;;;;;7.55;2.42;;;11.70;27.50;;;;;;20700367;28;20733;-40
2023/03/30 06:48:19;;;;;;;8.60;2.63;;;11.80;23.90;;;;;;20705396;28;20396;-40
2023/03/30 06:58:21;;;;;;;4.60;1.65;;;11.90;18.40;;;;;;20709750;28;20045;-40
2023/03/30 07:08:22;;;;;;;9.32;2.67;;;11.90;16.50;;;;;;20713784;28;20049;-40
2023/03/30 07:18:23;;;;;;;8.45;2.72;;;12.00;15.10;;;;;;20715990;28;20037;-41
2023/03/30 07:28:24;;;;;;;5.07;2.20;;;12.10;15.10;;;;;;20719466;28;20533;-41
2023/03/30 07:38:25;;;;;;;5.53;2.05;;;12.40;10.60;;;;;;20724278;28;20041;-41
2023/03/30 07:48:27;;;;;;;9.43;2.92;;;12.70;5.90;;;;;;20750860;28;20049;-41
2023/03/30 07:58:28;;;;;;;8.13;2.45;;;12.60;3.70;;;;;;20713486;28;20038;-41
2023/03/30 08:08:30;;;;;;;8.73;2.50;;;12.90;2.60;;;;;;20736411;28;20331;-42
2023/03/30 08:18:31;;;;;;;6.35;2.13;;;12.80;2.50;;;;;;20722179;28;20413;-42
2023/03/30 08:28:32;;;;;;;10.45;3.03;;;12.90;3.50;;;;;;20717723;28;20046;-41
2023/03/30 08:38:33;;;;;;;5.43;2.33;;;13.10;1.30;;;;;;20752504;28;20057;-42
2023/03/30 08:48:38;;;;;;;11.85;3.50;;;13.10;1.00;;;;;;20711075;28;20580;-41
2023/03/30 08:58:54;;;;;;;6.90;3.05;;;13.40;1.00;;;;;;20711509;28;20045;-42
2023/03/30 09:08:55;;;;;;;5.93;1.38;;;13.70;1.00;;;;;;20708646;28;20056;-42
2023/03/30 09:18:58;;;;;;;7.50;3.67;;;14.20;1.00;;;;;;20716344;28;20612;-42
2023/03/30 09:29:12;;;;;;;10.20;3.17;;;14.40;1.00;;;;;;20715252;28;20450;-42
2023/03/30 09:39:17;;;;;;;3.88;1.95;;;14.20;1.00;;;;;;20705552;28;20524;-41
2023/03/30 09:49:18;;;;;;;9.18;3.35;;;14.20;1.00;;;;;;20716674;28;20041;-41
2023/03/30 09:59:30;;;;;;;16.40;3.28;;;14.40;1.00;;;;;;20718653;28;20037;-41
2023/03/30 10:09:31;;;;;;;10.60;2.67;;;14.90;1.00;;;;;;20712775;28;20069;-42
2023/03/30 10:19:34;;;;;;;8.88;2.47;;;14.80;1.00;;;;;;20711629;28;20037;-41
2023/03/30 10:29:35;;;;;;;10.05;1.90;;;14.50;1.00;;;;;;20715917;28;20042;-41
2023/03/30 10:39:39;;;;;;;6.38;1.75;;;14.70;1.00;;;;;;20725337;28;20052;-42
2023/03/30 10:49:53;;;;;;;28.08;5.10;;;14.80;1.00;;;;;;20730206;28;20068;-41
2023/03/30 11:00:08;;;;;;;7.50;1.98;;;14.60;1.00;;;;;;20720038;28;20041;-41
2023/03/30 11:10:16;;;;;;;6.93;1.67;;;15.10;1.00;;;;;;20714317;28;20065;-40
2023/03/30 11:20:26;;;;;;;;;;;15.30;1.00;;;;;;20807663;28;20454;-41
2023/03/30 11:30:32;;;;;;;5.40;2.78;;;14.90;1.00;;;;;;20802811;28;19936;-40
2023/03/30 11:40:42;;;;;;;3.03;1.20;;;15.40;1.00;;;;;;20768264;28;20620;-41
2023/03/30 11:50:46;;;;;;;6.82;2.28;;;14.80;1.00;;;;;;20732849;28;20050;-42
2023/03/30 12:01:02;;;;;;;4.53;1.25;;;14.60;1.00;;;;;;20748408;28;20053;-40
2023/03/30 12:11:21;;;;;;;8.18;1.88;;;14.90;1.00;;;;;;20788517;28;20122;-40
2023/03/30 12:21:37;;;;;;;6.88;2.70;;;15.20;1.00;;;;;;20728898;28;20033;-41
2023/03/30 12:32:05;;;;;;;5.50;2.05;;;15.00;1.00;;;;;;20737390;28;20098;-40
2023/03/30 12:42:26;;;;;;;5.23;2.73;;;14.90;1.00;;;;;;20755793;28;20488;-41
2023/03/30 12:52:56;;;;;;;8.30;4.00;;;14.60;1.00;;;;;;20723714;28;21029;-41
2023/03/30 13:03:24;;;;;;;6.45;2.10;;;14.00;1.00;;;;;;20728030;28;20302;-41
2023/03/30 13:13:51;;;;;;;8.07;3.17;;;13.70;1.00;;;;;;20733371;28;20248;-41
2023/03/30 13:24:20;;;;;;;9.00;3.28;;;13.60;1.00;;;;;;20721629;28;20056;-41
2023/03/30 13:34:34;;;;;;;16.02;4.85;;;14.90;1.00;;;;;;20725711;28;20301;-40
2023/03/30 13:44:54;;;;;;;12.65;3.30;;;16.00;1.00;;;;;;20745799;28;20041;-40
2023/03/30 13:54:56;;;;;;;12.75;2.83;;;15.90;1.00;;;;;;20723840;28;20045;-40
2023/03/30 14:05:19;;;;;;;18.45;4.28;;;16.70;1.00;;;;;;20787906;28;20476;-41
2023/03/30 14:15:33;;;;;;;7.38;2.30;;;16.10;1.00;;;;;;20724243;28;20278;-40
2023/03/30 14:25:38;;;;;;;15.13;2.03;;;16.10;1.00;;;;;;20722046;28;20041;-42
2023/03/30 14:35:42;;;;;;;10.27;3.25;;;15.70;1.00;;;;;;20716575;28;20044;-43
2023/03/30 14:45:43;;;;;;;16.58;3.85;;;16.00;1.00;;;;;;20717599;28;20131;-40
2023/03/30 14:55:44;;;;;;;11.38;1.77;;;15.80;1.00;;;;;;20716847;28;20037;-40
2023/03/30 15:05:45;;;;;;;6.63;2.13;;;15.70;1.00;;;;;;20706583;28;20065;-40
2023/03/30 15:15:46;;;;;;;4.97;1.67;;;15.60;1.00;;;;;;20721641;28;20050;-40
2023/03/30 15:25:48;;;;;;;10.02;3.70;;;15.50;1.00;;;;;;20726745;28;20515;-41
2023/03/30 15:35:51;;;;;;;4.00;1.25;;;15.20;1.00;;;;;;20725304;28;20508;-41
2023/03/30 15:46:06;;;;;;;3.40;1.40;;;14.90;1.00;;;;;;20737801;28;20417;-41
2023/03/30 15:56:16;;;;;;;2.45;1.10;;;15.20;1.00;;;;;;20742421;28;20049;-41
2023/03/30 16:06:19;;;;;;;4.95;1.15;;;15.10;1.00;;;;;;20740331;28;20041;-40
2023/03/30 16:16:20;;;;;;;4.63;2.03;;;15.10;1.00;;;;;;20725500;28;20041;-40
2023/03/30 16:26:21;;;;;;;5.60;1.23;;;14.90;1.00;;;;;;20726000;28;20521;-41
2023/03/30 16:36:27;;;;;;;7.15;1.58;;;14.70;1.00;;;;;;20737741;28;20049;-41
2023/03/30 16:46:27;;;;;;;2.80;1.20;;;14.50;1.00;;;;;;20721039;28;20045;-40
2023/03/30 16:56:29;;;;;;;2.83;1.20;;;14.40;1.00;;;;;;20798772;28;20041;-40
2023/03/30 17:06:30;;;;;;;4.18;1.08;;;14.20;1.00;;;;;;20775321;28;20042;-41
2023/03/30 17:16:33;;;;;;;4.28;1.52;;;14.10;1.00;;;;;;20739713;28;20049;-41
2023/03/30 17:26:34;;;;;;;6.55;1.35;;;13.90;1.00;;;;;;20715816;28;20042;-41
2023/03/30 17:36:35;;;;;;;3.78;0.95;;;13.80;1.00;;;;;;20743493;28;20042;-40
2023/03/30 17:46:36;;;;;;;12.95;2.55;;;13.70;1.00;;;;;;20723695;28;20045;-40
2023/03/30 17:56:37;;;;;;;3.40;1.58;;;13.50;1.00;;;;;;20729293;28;20049;-40
2023/03/30 18:06:39;;;;;;;6.20;1.92;;;13.40;1.00;;;;;;20731252;28;20052;-40
2023/03/30 18:16:41;;;;;;;4.22;1.27;;;13.10;1.00;;;;;;20729666;28;20041;-40
2023/03/30 18:26:42;;;;;;;2.78;1.58;;;13.00;1.00;;;;;;20729084;28;20029;-39
2023/03/30 18:36:43;;;;;;;8.10;2.33;;;12.80;1.00;;;;;;20720801;28;20480;-40
2023/03/30 18:46:48;;;;;;;6.40;1.35;;;12.70;1.00;;;;;;20694627;28;20484;-41
2023/03/30 18:56:50;;;;;;;13.20;1.95;;;12.60;1.00;;;;;;20719475;28;20038;-41
2023/03/30 19:06:51;;;;;;;13.15;2.67;;;12.50;1.00;;;;;;20717563;28;20049;-40
2023/03/30 19:16:52;;;;;;;5.75;1.38;;;12.50;1.00;;;;;;20725231;28;20045;-41
2023/03/30 19:26:54;;;;;;;7.00;3.05;;;12.30;1.00;;;;;;20719192;28;20042;-41
2023/03/30 19:36:55;;;;;;;7.38;2.03;;;12.30;1.00;;;;;;20715826;28;20034;-41
2023/03/30 19:46:56;;;;;;;9.60;2.05;;;12.30;1.00;;;;;;20778084;28;20685;-40
2023/03/30 19:57:00;;;;;;;6.38;2.63;;;12.20;1.00;;;;;;20799270;28;20045;-41
2023/03/30 20:07:01;;;;;;;4.70;1.50;;;12.20;1.00;;;;;;20765690;28;20034;-41
2023/03/30 20:17:03;;;;;;;7.57;1.60;;;12.00;1.00;;;;;;20738976;28;20037;-41
2023/03/30 20:27:05;;;;;;;8.52;2.75;;;12.00;1.00;;;;;;20731715;28;20048;-41
2023/03/30 20:37:06;;;;;;;5.25;2.85;;;11.90;1.00;;;;;;20749897;28;20049;-41
2023/03/30 20:47:08;;;;;;;5.07;2.13;;;11.70;1.00;;;;;;20768568;28;20049;-41
2023/03/30 20:57:09;;;;;;;7.72;2.28;;;11.60;1.00;;;;;;20752322;28;20042;-41
2023/03/30 21:07:11;;;;;;;12.82;4.03;;;11.40;9.90;;;;;;20719348;28;20033;-41
2023/03/30 21:17:12;;;;;;;7.20;3.00;;;11.40;9.00;;;;;;20729926;28;20505;-41
2023/03/30 21:27:13;;;;;;;10.30;2.88;;;11.30;8.30;;;;;;20717251;28;20064;-41
2023/03/30 21:37:14;;;;;;;6.15;2.13;;;11.20;8.40;;;;;;20722338;28;20052;-41
2023/03/30 21:47:15;;;;;;;12.13;3.15;;;11.10;10.60;;;;;;20716234;28;20133;-41
2023/03/30 21:57:16;;;;;;;11.25;1.67;;;11.00;11.20;;;;;;20726341;28;20496;-40
2023/03/30 22:07:17;;;;;;;3.38;1.52;;;11.00;11.30;;;;;;20729050;28;20061;-41
2023/03/30 22:17:18;;;;;;;5.10;2.08;;;11.00;11.60;;;;;;20703344;28;22247;-41
2023/03/30 22:27:19;;;;;;;6.40;2.33;;;11.00;10.00;;;;;;20743798;28;20498;-41
2023/03/30 22:37:23;;;;;;;4.22;1.77;;;11.10;7.80;;;;;;20713777;28;20053;-41
2023/03/30 22:47:24;;;;;;;10.65;3.30;;;11.00;9.60;;;;;;20716038;28;20823;-40
2023/03/30 22:57:26;;;;;;;3.65;1.75;;;11.00;9.50;;;;;;20720523;28;20640;-41
2023/03/30 23:07:30;;;;;;;5.45;1.65;;;11.00;9.50;;;;;;20714409;28;20819;-41
2023/03/30 23:17:31;;;;;;;7.90;2.67;;;10.80;12.80;;;;;;20712506;28;20639;-41
2023/03/30 23:27:33;;;;;;;4.50;1.35;;;10.80;12.80;;;;;;20719885;28;20042;-41
2023/03/30 23:37:35;;;;;;;9.18;2.30;;;10.60;17.10;;;;;;20743488;28;20044;-41
2023/03/30 23:47:37;;;;;;;6.80;1.80;;;10.60;19.10;;;;;;20738429;28;20041;-41
2023/03/30 23:57:38;;;;;;;8.63;1.30;;;10.50;18.80;;;;;;20760535;28;20049;-41
